createdAt,value
2018-03-31T00:01:39.132Z,5.97
2018-03-31T00:04:07.023Z,5.96
2018-03-31T00:06:33.981Z,5.95
2018-03-31T00:09:00.947Z,5.95
2018-03-31T00:11:27.938Z,5.95
2018-03-31T00:13:54.907Z,5.95
2018-03-31T00:16:22.415Z,5.94
2018-03-31T00:18:50.631Z,5.94
2018-03-31T00:21:18.537Z,5.92
2018-03-31T00:23:45.520Z,5.90
2018-03-31T00:26:12.507Z,5.89
2018-03-31T00:28:39.500Z,5.88
2018-03-31T00:31:06.437Z,5.88
2018-03-31T00:33:35.814Z,5.88
2018-03-31T00:36:03.135Z,5.89
2018-03-31T00:38:31.400Z,5.89
2018-03-31T00:40:58.377Z,5.89
2018-03-31T00:43:25.354Z,5.89
2018-03-31T00:45:52.311Z,5.89
2018-03-31T00:48:19.263Z,5.89
2018-03-31T00:50:47.531Z,5.89
2018-03-31T00:53:15.135Z,5.89
2018-03-31T00:55:43.467Z,5.89
2018-03-31T00:58:11.292Z,5.89
2018-03-31T01:00:38.268Z,5.89
2018-03-31T01:03:05.212Z,5.89
2018-03-31T01:05:32.182Z,5.90
2018-03-31T01:07:59.123Z,5.89
2018-03-31T01:10:27.873Z,5.89
2018-03-31T01:12:55.431Z,5.89
2018-03-31T01:15:23.921Z,5.89
2018-03-31T01:17:50.870Z,5.88
2018-03-31T01:20:17.830Z,5.89
2018-03-31T01:22:44.836Z,5.88
2018-03-31T01:25:11.827Z,5.87
2018-03-31T01:27:39.833Z,5.87
2018-03-31T01:30:07.368Z,5.87
2018-03-31T01:32:35.856Z,5.87
2018-03-31T01:35:02.788Z,5.88
2018-03-31T01:37:29.761Z,5.87
2018-03-31T01:39:56.730Z,5.89
2018-03-31T01:42:23.700Z,5.88
2018-03-31T01:44:51.720Z,5.89
2018-03-31T01:47:19.619Z,5.89
2018-03-31T01:49:48.028Z,5.88
2018-03-31T01:52:14.965Z,5.88
2018-03-31T01:54:41.965Z,5.88
2018-03-31T01:57:08.975Z,5.88
2018-03-31T01:59:35.964Z,5.87
2018-03-31T02:02:03.303Z,5.88
2018-03-31T02:04:31.910Z,5.87
2018-03-31T02:06:59.519Z,5.88
2018-03-31T02:09:26.484Z,5.88
2018-03-31T02:11:53.414Z,5.85
2018-03-31T02:14:20.363Z,5.85
2018-03-31T02:16:47.339Z,5.84
2018-03-31T02:19:15.467Z,5.84
2018-03-31T02:21:43.886Z,5.85
2018-03-31T02:24:11.529Z,5.85
2018-03-31T02:26:38.502Z,5.86
2018-03-31T02:29:05.493Z,5.86
2018-03-31T02:31:32.442Z,5.87
2018-03-31T02:33:59.424Z,5.86
2018-03-31T02:36:27.530Z,5.85
2018-03-31T02:38:55.968Z,5.86
2018-03-31T02:41:23.858Z,5.86
2018-03-31T02:43:50.805Z,5.84
2018-03-31T02:46:17.756Z,5.83
2018-03-31T02:48:44.717Z,5.82
2018-03-31T02:51:11.711Z,5.84
2018-03-31T02:53:39.338Z,5.84
2018-03-31T02:56:07.862Z,5.86
2018-03-31T02:58:35.620Z,5.85
2018-03-31T03:01:02.624Z,5.87
2018-03-31T03:03:29.580Z,5.88
2018-03-31T03:05:56.570Z,5.90
2018-03-31T03:08:23.583Z,5.90
2018-03-31T03:10:51.604Z,5.90
2018-03-31T03:13:20.097Z,5.89
2018-03-31T03:15:47.576Z,5.89
2018-03-31T03:18:14.559Z,5.89
2018-03-31T03:20:41.552Z,5.90
2018-03-31T03:23:08.549Z,5.90
2018-03-31T03:25:35.518Z,5.90
2018-03-31T03:28:03.468Z,5.89
2018-03-31T03:30:31.940Z,5.89
2018-03-31T03:32:59.446Z,5.89
2018-03-31T03:35:26.439Z,5.89
2018-03-31T03:37:53.398Z,5.89
2018-03-31T03:40:20.355Z,5.89
2018-03-31T03:42:47.322Z,5.89
2018-03-31T03:45:15.128Z,5.90
2018-03-31T03:47:42.956Z,5.90
2018-03-31T03:50:11.035Z,5.90
2018-03-31T03:52:37.988Z,5.90
2018-03-31T03:55:04.968Z,5.90
2018-03-31T03:57:31.944Z,5.90
2018-03-31T03:59:58.960Z,5.91
2018-03-31T04:02:26.968Z,5.92
2018-03-31T04:04:55.048Z,5.92
2018-03-31T04:07:22.964Z,5.92
2018-03-31T04:09:49.938Z,5.92
2018-03-31T04:12:16.911Z,5.92
2018-03-31T04:14:43.873Z,5.92
2018-03-31T04:17:10.836Z,5.92
2018-03-31T04:19:40.224Z,5.92
2018-03-31T04:22:07.879Z,5.93
2018-03-31T04:24:35.299Z,5.93
2018-03-31T04:27:02.276Z,5.93
2018-03-31T04:29:29.241Z,5.93
2018-03-31T04:31:56.250Z,5.93
2018-03-31T04:34:23.218Z,5.94
2018-03-31T04:36:51.132Z,5.94
2018-03-31T04:39:19.628Z,5.94
2018-03-31T04:41:47.251Z,5.94
2018-03-31T04:44:14.199Z,5.95
2018-03-31T04:46:41.176Z,5.94
2018-03-31T04:49:08.171Z,5.93
2018-03-31T04:51:35.167Z,5.93
2018-03-31T04:54:02.885Z,5.94
2018-03-31T04:56:32.351Z,5.94
2018-03-31T04:58:59.288Z,5.94
2018-03-31T05:01:26.295Z,5.93
2018-03-31T05:03:53.245Z,5.93
2018-03-31T05:06:20.269Z,5.93
2018-03-31T05:08:47.220Z,5.92
2018-03-31T05:11:15.548Z,5.91
2018-03-31T05:13:43.401Z,5.91
2018-03-31T05:16:11.517Z,5.90
2018-03-31T05:18:39.609Z,5.89
2018-03-31T05:21:06.587Z,5.90
2018-03-31T05:23:33.543Z,5.90
2018-03-31T05:26:00.523Z,5.90
2018-03-31T05:28:27.615Z,5.90
2018-03-31T05:30:55.253Z,5.90
2018-03-31T05:33:23.353Z,5.90
2018-03-31T05:35:51.349Z,5.89
2018-03-31T05:38:18.339Z,5.88
2018-03-31T05:40:45.295Z,5.87
2018-03-31T05:43:12.238Z,5.87
2018-03-31T05:54:18.211Z,5.88
2018-03-31T05:56:45.244Z,5.89
2018-03-31T05:59:12.219Z,5.91
2018-03-31T06:01:39.152Z,5.91
2018-03-31T06:04:07.144Z,5.92
2018-03-31T06:06:35.499Z,5.93
2018-03-31T06:09:03.968Z,5.94
2018-03-31T06:11:31.413Z,5.95
2018-03-31T06:13:58.451Z,5.96
2018-03-31T06:16:25.412Z,5.97
2018-03-31T06:18:52.408Z,5.97
2018-03-31T06:21:19.531Z,5.98
2018-03-31T06:23:48.120Z,5.98
2018-03-31T06:26:15.480Z,5.97
2018-03-31T06:28:44.405Z,5.97
2018-03-31T06:31:11.406Z,5.96
2018-03-31T06:33:38.388Z,5.97
2018-03-31T06:36:05.359Z,5.96
2018-03-31T06:38:33.607Z,5.96
2018-03-31T06:41:01.683Z,5.96
2018-03-31T06:43:31.315Z,5.96
2018-03-31T06:46:02.366Z,5.96
2018-03-31T06:48:29.416Z,5.97
2018-03-31T06:50:56.395Z,5.97
2018-03-31T06:53:23.438Z,5.98
2018-03-31T06:55:53.589Z,5.98
2018-03-31T06:58:21.575Z,5.99
2018-03-31T07:00:49.563Z,6.00
2018-03-31T07:03:18.343Z,5.99
2018-03-31T07:05:45.320Z,5.99
2018-03-31T07:08:12.296Z,5.99
2018-03-31T07:10:39.295Z,5.99
2018-03-31T07:13:06.568Z,5.99
2018-03-31T07:15:34.723Z,6.00
2018-03-31T07:18:04.343Z,5.99
2018-03-31T07:20:31.349Z,5.99
2018-03-31T07:22:58.289Z,5.99
2018-03-31T07:25:25.275Z,5.99
2018-03-31T07:27:52.230Z,5.98
2018-03-31T07:30:19.230Z,5.97
2018-03-31T07:32:47.154Z,5.97
2018-03-31T07:35:15.348Z,5.95
2018-03-31T07:37:43.952Z,5.95
2018-03-31T07:40:10.898Z,5.95
2018-03-31T07:42:37.834Z,5.94
2018-03-31T07:45:04.826Z,5.94
2018-03-31T07:47:31.797Z,5.94
2018-03-31T07:53:04.482Z,5.94
2018-03-31T07:55:31.463Z,5.93
2018-03-31T07:57:58.426Z,5.93
2018-03-31T08:00:25.402Z,5.92
2018-03-31T08:02:52.354Z,5.92
2018-03-31T08:05:19.584Z,5.90
2018-03-31T08:07:46.624Z,5.90
2018-03-31T08:10:13.891Z,5.89
2018-03-31T08:12:40.981Z,5.89
2018-03-31T08:15:08.179Z,5.90
2018-03-31T08:17:35.197Z,5.91
2018-03-31T08:20:02.257Z,5.93
2018-03-31T08:22:29.308Z,5.94
2018-03-31T08:24:56.325Z,5.95
2018-03-31T08:27:23.435Z,5.96
2018-03-31T08:29:51.621Z,5.96
2018-03-31T08:32:18.683Z,5.97
2018-03-31T08:34:45.684Z,5.98
2018-03-31T08:37:12.675Z,5.98
2018-03-31T08:39:39.748Z,5.99
2018-03-31T08:42:08.025Z,6.00
2018-03-31T08:44:35.498Z,6.01
2018-03-31T08:47:04.123Z,6.02
2018-03-31T08:49:31.099Z,6.04
2018-03-31T08:51:58.117Z,6.04
2018-03-31T08:54:25.093Z,6.04
2018-03-31T08:56:52.121Z,6.05
2018-03-31T08:59:19.529Z,6.07
2018-03-31T09:01:46.662Z,6.09
2018-03-31T09:04:14.704Z,6.11
2018-03-31T09:06:41.722Z,6.14
2018-03-31T09:09:08.729Z,6.17
2018-03-31T09:11:35.717Z,6.19
2018-03-31T09:14:02.817Z,6.20
2018-03-31T09:16:33.882Z,6.22
2018-03-31T09:19:00.976Z,6.23
2018-03-31T09:21:29.798Z,6.25
2018-03-31T09:23:56.812Z,6.27
2018-03-31T09:26:23.867Z,6.27
2018-03-31T09:28:50.888Z,6.28
2018-03-31T09:31:17.920Z,6.32
2018-03-31T09:33:46.717Z,6.33
2018-03-31T09:36:15.764Z,6.34
2018-03-31T09:38:44.049Z,6.35
2018-03-31T09:41:11.536Z,6.36
2018-03-31T09:43:38.544Z,6.35
2018-03-31T09:46:05.560Z,6.37
2018-03-31T09:48:32.618Z,6.37
2018-03-31T09:50:59.677Z,6.39
2018-03-31T09:53:27.645Z,6.41
2018-03-31T09:55:55.963Z,6.45
2018-03-31T09:58:23.381Z,6.47
2018-03-31T10:03:43.562Z,6.46
2018-03-31T10:06:10.675Z,6.45
2018-03-31T10:08:38.831Z,6.46
2018-03-31T10:11:08.369Z,6.49
2018-03-31T10:13:35.460Z,6.54
2018-03-31T10:16:02.495Z,6.58
2018-03-31T10:18:29.483Z,6.66
2018-03-31T10:20:56.469Z,6.74
2018-03-31T10:23:23.467Z,6.85
2018-03-31T10:25:51.651Z,6.94
2018-03-31T10:28:20.609Z,6.98
2018-03-31T10:30:51.548Z,6.99
2018-03-31T10:33:19.900Z,7.00
2018-03-31T10:35:46.893Z,7.02
2018-03-31T10:38:13.924Z,7.03
2018-03-31T10:40:40.974Z,7.06
2018-03-31T10:43:08.103Z,7.11
2018-03-31T10:45:35.492Z,7.15
2018-03-31T10:48:03.900Z,7.19
2018-03-31T10:50:32.409Z,7.23
2018-03-31T10:52:59.418Z,7.27
2018-03-31T10:55:26.422Z,7.30
2018-03-31T10:57:53.495Z,7.33
2018-03-31T11:00:20.720Z,7.34
2018-03-31T11:02:48.719Z,7.38
2018-03-31T11:05:16.019Z,7.39
2018-03-31T11:07:43.917Z,7.39
2018-03-31T11:10:10.969Z,7.41
2018-03-31T11:12:38.019Z,7.42
2018-03-31T11:15:05.001Z,7.44
2018-03-31T11:17:32.080Z,7.44
2018-03-31T11:19:59.694Z,7.47
2018-03-31T11:22:28.252Z,7.51
2018-03-31T11:24:55.724Z,7.54
2018-03-31T11:27:22.748Z,7.55
2018-03-31T11:29:49.743Z,7.56
2018-03-31T11:32:16.958Z,7.59
2018-03-31T11:34:43.996Z,7.61
2018-03-31T11:37:12.256Z,7.61
2018-03-31T11:42:21.572Z,7.65
2018-03-31T11:44:48.638Z,7.65
2018-03-31T11:47:15.624Z,7.67
2018-03-31T11:49:42.637Z,7.69
2018-03-31T11:52:11.665Z,7.67
2018-03-31T11:54:40.680Z,7.66
2018-03-31T11:57:12.498Z,7.70
2018-03-31T11:59:39.536Z,7.80
2018-03-31T12:02:06.575Z,7.86
2018-03-31T12:04:33.574Z,7.94
2018-03-31T12:07:00.592Z,7.99
2018-03-31T12:12:14.329Z,8.08
2018-03-31T12:14:48.636Z,8.15
2018-03-31T12:17:18.492Z,8.24
2018-03-31T12:19:45.501Z,8.31
2018-03-31T12:22:12.543Z,8.40
2018-03-31T12:24:39.588Z,8.49
2018-03-31T12:27:14.526Z,8.55
2018-03-31T12:29:44.116Z,8.57
2018-03-31T12:35:13.752Z,8.44
2018-03-31T12:37:40.869Z,8.34
2018-03-31T12:40:07.889Z,8.25
2018-03-31T12:42:35.049Z,8.20
2018-03-31T12:53:18.232Z,8.35
2018-03-31T12:55:45.280Z,8.49
2018-03-31T12:58:12.329Z,8.58
2018-03-31T13:00:40.512Z,8.64
2018-03-31T13:03:07.686Z,8.72
2018-03-31T13:05:38.461Z,8.80
2018-03-31T13:08:24.655Z,8.90
2018-03-31T13:10:54.568Z,9.02
2018-03-31T13:13:21.663Z,9.13
2018-03-31T13:15:48.736Z,9.19
2018-03-31T13:18:15.994Z,9.23
2018-03-31T13:23:31.576Z,9.27
2018-03-31T13:26:03.828Z,9.35
2018-03-31T13:28:31.019Z,9.42
2018-03-31T13:30:58.088Z,9.48
2018-03-31T13:33:25.102Z,9.50
2018-03-31T13:35:52.383Z,9.48
2018-03-31T13:38:22.615Z,9.46
2018-03-31T13:40:54.454Z,9.50
2018-03-31T13:46:11.404Z,9.49
2018-03-31T13:48:38.435Z,9.46
2018-03-31T13:51:05.523Z,9.43
2018-03-31T13:53:32.632Z,9.40
2018-03-31T13:55:59.678Z,9.37
2018-03-31T13:58:27.857Z,9.37
2018-03-31T14:00:56.486Z,9.37
2018-03-31T14:03:23.524Z,9.35
2018-03-31T14:05:50.555Z,9.38
2018-03-31T14:08:17.627Z,9.42
2018-03-31T14:13:47.577Z,9.91
2018-03-31T14:16:15.580Z,10.18
2018-03-31T14:18:42.588Z,10.16
2018-03-31T14:21:09.651Z,10.12
2018-03-31T14:23:36.660Z,10.02
2018-03-31T14:26:03.764Z,9.95
2018-03-31T14:28:31.733Z,9.82
2018-03-31T14:30:59.367Z,9.72
2018-03-31T14:33:27.843Z,9.65
2018-03-31T14:35:54.860Z,9.63
2018-03-31T14:38:21.897Z,9.65
2018-03-31T14:40:48.916Z,9.70
2018-03-31T14:43:16.025Z,9.72
2018-03-31T14:45:43.116Z,9.72
2018-03-31T14:48:11.021Z,9.64
2018-03-31T14:50:40.564Z,9.59
2018-03-31T14:53:07.576Z,9.55
2018-03-31T14:55:34.631Z,9.51
2018-03-31T14:58:01.664Z,9.50
2018-03-31T15:00:28.724Z,9.49
2018-03-31T15:02:55.792Z,9.48
2018-03-31T15:05:23.945Z,9.49
2018-03-31T15:07:51.320Z,9.49
2018-03-31T15:10:19.944Z,9.48
2018-03-31T15:12:46.961Z,9.45
2018-03-31T15:15:14.014Z,9.42
2018-03-31T15:17:41.088Z,9.39
2018-03-31T15:20:08.328Z,9.36
2018-03-31T15:22:36.460Z,9.33
2018-03-31T15:25:03.851Z,9.26
2018-03-31T15:27:39.416Z,9.20
2018-03-31T15:30:06.420Z,9.17
2018-03-31T15:32:33.444Z,9.20
2018-03-31T15:35:00.488Z,9.32
2018-03-31T15:37:27.683Z,9.36
2018-03-31T15:39:55.550Z,9.33
2018-03-31T15:42:23.425Z,9.27
2018-03-31T15:44:51.507Z,9.20
2018-03-31T15:47:18.601Z,9.21
2018-03-31T15:49:45.612Z,9.25
2018-03-31T15:52:12.635Z,9.31
2018-03-31T15:54:39.695Z,9.32
2018-03-31T15:57:07.689Z,9.33
2018-03-31T15:59:35.821Z,9.29
2018-03-31T16:02:11.591Z,9.23
2018-03-31T16:04:39.780Z,9.19
2018-03-31T16:07:06.878Z,9.15
2018-03-31T16:09:34.032Z,9.12
2018-03-31T16:21:09.938Z,8.86
2018-03-31T16:23:36.965Z,8.83
2018-03-31T16:26:04.006Z,8.77
2018-03-31T16:28:50.511Z,8.75
2018-03-31T16:31:18.535Z,8.71
2018-03-31T16:37:07.174Z,8.68
2018-03-31T16:39:34.188Z,8.66
2018-03-31T16:42:01.218Z,8.62
2018-03-31T16:44:28.331Z,8.61
2018-03-31T16:46:55.857Z,8.62
2018-03-31T16:49:28.265Z,8.63
2018-03-31T16:51:59.835Z,8.62
2018-03-31T16:54:26.829Z,8.61
2018-03-31T16:56:53.861Z,8.60
2018-03-31T16:59:20.935Z,8.58
2018-03-31T17:01:47.964Z,8.54
2018-03-31T17:04:15.868Z,8.50
2018-03-31T17:06:43.986Z,8.48
2018-03-31T17:09:11.642Z,8.46
2018-03-31T17:11:38.677Z,8.44
2018-03-31T17:14:05.684Z,8.42
2018-03-31T17:16:32.710Z,8.40
2018-03-31T17:18:59.721Z,8.36
2018-03-31T17:31:15.195Z,8.20
2018-03-31T17:33:42.239Z,8.19
2018-03-31T17:36:12.539Z,8.16
2018-03-31T17:47:47.860Z,8.07
2018-03-31T17:52:50.112Z,8.04
2018-03-31T18:04:26.775Z,7.99
2018-03-31T18:06:54.069Z,7.96
2018-03-31T18:09:21.249Z,7.96
2018-03-31T18:20:57.274Z,7.90
2018-03-31T18:23:24.426Z,7.89
2018-03-31T18:25:51.606Z,7.88
2018-03-31T18:37:27.521Z,7.83
2018-03-31T18:39:54.570Z,7.83
2018-03-31T18:42:21.650Z,7.82
2018-03-31T18:53:58.794Z,7.76
2018-03-31T18:56:27.011Z,7.75
2018-03-31T18:59:02.112Z,7.75
2018-03-31T19:01:42.069Z,7.74
2018-03-31T19:13:18.005Z,7.69
2018-03-31T19:15:56.215Z,7.70
2018-03-31T19:18:23.981Z,7.68
2018-03-31T19:33:04.229Z,7.63
2018-03-31T20:04:40.232Z,7.49
2018-03-31T20:19:19.335Z,7.43
2018-03-31T20:21:46.462Z,7.43
2018-03-31T20:24:13.512Z,7.41
2018-03-31T20:26:40.633Z,7.41
2018-03-31T20:38:16.739Z,7.40
2018-03-31T20:40:43.813Z,7.40
2018-03-31T20:43:10.910Z,7.40
2018-03-31T20:54:45.342Z,7.36
2018-03-31T20:57:12.396Z,7.35
2018-03-31T20:59:39.450Z,7.34
2018-03-31T21:11:16.026Z,7.27
2018-03-31T21:13:43.146Z,7.27
2018-03-31T21:16:10.203Z,7.25
2018-03-31T21:27:46.594Z,7.23
2018-03-31T21:30:13.779Z,7.23
2018-03-31T21:32:41.782Z,7.22
2018-03-31T21:46:52.533Z,7.21
2018-03-31T21:49:19.693Z,7.20
2018-03-31T21:51:46.743Z,7.20
2018-03-31T22:03:23.056Z,7.19
2018-03-31T22:05:50.100Z,7.17
2018-03-31T22:08:17.280Z,7.18
2018-03-31T22:19:53.741Z,7.14
2018-03-31T22:22:20.846Z,7.13
2018-03-31T22:24:48.655Z,7.12
2018-03-31T22:36:26.099Z,7.09
2018-03-31T22:38:53.360Z,7.09
2018-03-31T22:41:20.573Z,7.08
2018-03-31T22:52:57.076Z,7.07
2018-03-31T22:55:24.248Z,7.07
2018-03-31T22:57:51.422Z,7.07
2018-03-31T23:00:18.564Z,7.06
2018-03-31T23:11:55.452Z,7.06
2018-03-31T23:14:23.221Z,7.05
2018-03-31T23:16:50.409Z,7.05
2018-03-31T23:28:27.950Z,7.03
2018-03-31T23:30:55.658Z,7.03
2018-03-31T23:33:22.788Z,7.02
2018-03-31T23:44:58.361Z,7.00
2018-03-31T23:47:26.418Z,7.00
2018-03-31T23:49:54.208Z,6.99
